createdAt,value
2023-02-19T00:01:11.325Z,99852.88
2023-02-19T00:03:38.969Z,99852.88
2023-02-19T00:06:07.498Z,99840.78
2023-02-19T00:08:34.880Z,99839.19
2023-02-19T00:11:11.916Z,99845.53
2023-02-19T00:13:40.432Z,99843.38
2023-02-19T00:16:12.529Z,99836.22
2023-02-19T00:18:39.864Z,99833.22
2023-02-19T00:21:06.523Z,99831.25
2023-02-19T00:23:33.277Z,99831.25
2023-02-19T00:26:17.237Z,99830.09
2023-02-19T00:28:45.888Z,99817.94
2023-02-19T00:31:25.809Z,99827.91
2023-02-19T00:33:55.200Z,99820.03
2023-02-19T00:36:22.360Z,99819.34
2023-02-19T00:38:49.381Z,99824.56
2023-02-19T00:41:20.091Z,99813.56
2023-02-19T00:44:00.854Z,99811.03
2023-02-19T00:46:30.439Z,99809.06
2023-02-19T00:48:57.861Z,99809.63
2023-02-19T00:51:27.283Z,99807.59
2023-02-19T00:53:54.065Z,99808.25
2023-02-19T00:56:20.852Z,99801.53
2023-02-19T00:58:47.657Z,99797.28
2023-02-19T01:01:14.557Z,99802.34
2023-02-19T01:03:41.038Z,99800.25
2023-02-19T01:06:09.132Z,99790.75
2023-02-19T01:08:36.084Z,99795.97
2023-02-19T01:11:04.573Z,99793.69
2023-02-19T01:13:31.129Z,99788.13
2023-02-19T01:16:08.027Z,99782.69
2023-02-19T01:18:35.134Z,99770.53
2023-02-19T01:21:07.132Z,99767.19
2023-02-19T01:23:34.168Z,99761.16
2023-02-19T01:26:01.041Z,99758.16
2023-02-19T01:28:27.529Z,99764.97
2023-02-19T01:30:54.597Z,99756.63
2023-02-19T01:33:21.101Z,99747.38
2023-02-19T01:35:47.536Z,99745.63
2023-02-19T01:38:13.972Z,99730.13
2023-02-19T01:40:40.382Z,99722.47
2023-02-19T01:43:15.059Z,99723.66
2023-02-19T01:45:44.341Z,99714.03
2023-02-19T01:48:17.417Z,99725.72
2023-02-19T01:50:47.142Z,99716.69
2023-02-19T01:53:14.904Z,99715.63
2023-02-19T01:55:41.954Z,99709.72
2023-02-19T01:58:09.209Z,99718.31
2023-02-19T02:00:36.203Z,99711.81
2023-02-19T02:03:03.048Z,99714.16
2023-02-19T02:06:06.792Z,99709.66
2023-02-19T02:08:52.618Z,99710.91
2023-02-19T02:11:20.276Z,99707.44
2023-02-19T02:13:47.247Z,99707.56
2023-02-19T02:16:24.119Z,99700.97
2023-02-19T02:19:09.728Z,99705.97
2023-02-19T02:21:48.861Z,99696.59
2023-02-19T02:24:24.238Z,99693.66
2023-02-19T02:27:12.313Z,99687.66
2023-02-19T02:30:03.716Z,99691.81
2023-02-19T02:32:35.790Z,99687.31
2023-02-19T02:35:09.717Z,99682.09
2023-02-19T02:37:39.314Z,99676.75
2023-02-19T02:40:08.026Z,99671.53
2023-02-19T02:42:35.878Z,99668.91
2023-02-19T02:45:36.475Z,99666.34
2023-02-19T02:48:18.205Z,99656.06
2023-02-19T02:51:14.345Z,99661.59
2023-02-19T02:54:12.936Z,99649.22
2023-02-19T02:56:41.282Z,99649.91
2023-02-19T02:59:10.583Z,99628.53
2023-02-19T03:02:04.239Z,99635.13
2023-02-19T03:04:37.676Z,99631.88
2023-02-19T03:07:08.213Z,99639.75
2023-02-19T03:09:41.315Z,99638.81
2023-02-19T03:15:27.232Z,99630.84
2023-02-19T03:18:20.291Z,99623.66
2023-02-19T03:20:49.390Z,99624.81
2023-02-19T03:23:17.636Z,99615.22
2023-02-19T03:26:02.799Z,99609.19
2023-02-19T03:28:51.557Z,99607.56
2023-02-19T03:31:21.475Z,99602.84
2023-02-19T03:33:52.518Z,99599.72
2023-02-19T03:36:25.660Z,99604.13
2023-02-19T03:38:59.655Z,99607.50
2023-02-19T03:41:35.350Z,99598.59
2023-02-19T03:44:14.208Z,99611.16
2023-02-19T03:46:47.355Z,99600.22
2023-02-19T03:49:40.788Z,99592.34
2023-02-19T03:52:18.059Z,99585.66
2023-02-19T03:54:59.957Z,99585.53
2023-02-19T03:58:00.239Z,99587.50
2023-02-19T04:00:40.562Z,99588.63
2023-02-19T04:03:16.395Z,99579.84
2023-02-19T04:05:46.902Z,99575.69
2023-02-19T04:08:18.558Z,99567.38
2023-02-19T04:10:46.457Z,99567.84
2023-02-19T04:13:17.410Z,99576.06
2023-02-19T04:15:44.562Z,99564.81
2023-02-19T04:18:15.444Z,99557.78
2023-02-19T04:20:45.772Z,99560.22
2023-02-19T04:23:13.345Z,99559.25
2023-02-19T04:25:42.375Z,99567.13
2023-02-19T04:28:09.558Z,99545.75
2023-02-19T04:30:36.304Z,99550.38
2023-02-19T04:33:02.873Z,99561.22
2023-02-19T04:35:29.699Z,99558.56
2023-02-19T04:37:56.219Z,99549.09
2023-02-19T04:40:22.686Z,99539.28
2023-02-19T04:42:49.117Z,99546.44
2023-02-19T04:45:15.733Z,99546.56
2023-02-19T04:47:43.266Z,99539.84
2023-02-19T04:50:09.834Z,99541.69
2023-02-19T04:52:36.573Z,99552.91
2023-02-19T04:55:02.996Z,99552.56
2023-02-19T04:57:29.390Z,99553.06
2023-02-19T04:59:55.854Z,99554.06
2023-02-19T05:02:22.524Z,99541.00
2023-02-19T05:04:49.323Z,99548.28
2023-02-19T05:07:15.718Z,99548.28
2023-02-19T05:09:42.138Z,99553.72
2023-02-19T05:12:08.559Z,99567.13
2023-02-19T05:14:35.206Z,99566.66
2023-02-19T05:17:01.662Z,99567.94
2023-02-19T05:19:28.374Z,99574.63
2023-02-19T05:21:54.797Z,99574.97
2023-02-19T05:24:21.304Z,99571.41
2023-02-19T05:26:48.686Z,99567.13
2023-02-19T05:29:15.162Z,99568.97
2023-02-19T05:31:41.926Z,99564.13
2023-02-19T05:34:08.476Z,99566.44
2023-02-19T05:36:35.018Z,99560.19
2023-02-19T05:39:01.773Z,99562.63
2023-02-19T05:41:29.908Z,99559.72
2023-02-19T05:43:57.345Z,99558.91
2023-02-19T05:46:26.683Z,99548.75
2023-02-19T05:48:53.800Z,99545.50
2023-02-19T05:51:22.560Z,99559.16
2023-02-19T05:53:50.045Z,99563.19
2023-02-19T05:56:37.823Z,99572.56
2023-02-19T05:59:14.682Z,99584.91
2023-02-19T06:01:41.122Z,99584.09
2023-02-19T06:04:08.710Z,99580.06
2023-02-19T06:06:35.337Z,99585.59
2023-02-19T06:09:01.838Z,99584.00
2023-02-19T06:11:28.904Z,99587.91
2023-02-19T06:13:55.353Z,99583.06
2023-02-19T06:16:22.035Z,99583.19
2023-02-19T06:18:48.742Z,99591.84
2023-02-19T06:21:16.605Z,99596.56
2023-02-19T06:23:43.592Z,99606.50
2023-02-19T06:26:12.953Z,99596.69
2023-02-19T06:28:40.583Z,99601.91
2023-02-19T06:31:07.837Z,99599.47
2023-02-19T06:33:34.972Z,99609.41
2023-02-19T06:36:03.132Z,99614.94
2023-02-19T06:38:30.958Z,99616.44
2023-02-19T06:41:02.083Z,99624.66
2023-02-19T06:43:28.926Z,99614.03
2023-02-19T06:45:59.462Z,99628.03
2023-02-19T06:48:27.278Z,99629.06
2023-02-19T06:50:53.990Z,99626.28
2023-02-19T06:53:20.674Z,99623.16
2023-02-19T06:56:01.756Z,99630.34
2023-02-19T06:58:28.673Z,99641.44
2023-02-19T07:00:55.202Z,99637.16
2023-02-19T07:03:21.816Z,99650.22
2023-02-19T07:05:48.393Z,99648.72
2023-02-19T07:08:17.221Z,99657.72
2023-02-19T07:10:45.029Z,99662.13
2023-02-19T07:13:11.741Z,99665.47
2023-02-19T07:15:38.319Z,99662.13
2023-02-19T07:18:07.101Z,99658.19
2023-02-19T07:20:33.501Z,99690.31
2023-02-19T07:22:59.925Z,99688.22
2023-02-19T07:25:26.380Z,99695.13
2023-02-19T07:27:53.311Z,99700.50
2023-02-19T07:30:19.917Z,99717.13
2023-02-19T07:32:46.568Z,99725.72
2023-02-19T07:35:12.976Z,99734.91
2023-02-19T07:37:41.233Z,99737.78
2023-02-19T07:40:08.039Z,99751.75
2023-02-19T07:42:34.444Z,99751.81
2023-02-19T07:45:00.878Z,99766.09
2023-02-19T07:47:28.912Z,99766.09
2023-02-19T07:49:55.373Z,99768.34
2023-02-19T07:52:21.732Z,99772.03
2023-02-19T07:54:48.202Z,99779.50
2023-02-19T07:57:14.689Z,99784.47
2023-02-19T07:59:41.207Z,99784.47
2023-02-19T08:02:37.160Z,99794.56
2023-02-19T08:05:05.556Z,99791.53
2023-02-19T08:07:35.987Z,99807.78
2023-02-19T08:10:22.092Z,99814.16
2023-02-19T08:13:14.879Z,99813.03
2023-02-19T08:15:41.312Z,99825.22
2023-02-19T08:18:08.323Z,99827.34
2023-02-19T08:20:34.955Z,99835.59
2023-02-19T08:23:01.417Z,99845.69
2023-02-19T08:25:28.502Z,99860.69
2023-02-19T08:27:54.884Z,99872.41
2023-02-19T08:30:21.901Z,99872.72
2023-02-19T08:32:48.485Z,99888.00
2023-02-19T08:35:14.971Z,99895.28
2023-02-19T08:37:41.349Z,99886.19
2023-02-19T08:40:08.354Z,99889.28
2023-02-19T08:42:35.427Z,99902.56
2023-02-19T08:45:01.899Z,99921.28
2023-02-19T08:47:28.564Z,99927.56
2023-02-19T08:49:54.989Z,99936.63
2023-02-19T08:52:21.449Z,99940.66
2023-02-19T08:54:47.948Z,99963.72
2023-02-19T08:57:14.684Z,99974.16
2023-02-19T08:59:41.245Z,99985.25
2023-02-19T09:02:09.318Z,99984.00
2023-02-19T09:04:37.766Z,100002.56
2023-02-19T09:07:07.691Z,100002.81
2023-02-19T09:09:37.250Z,100015.91
2023-02-19T09:12:07.896Z,100022.19
2023-02-19T09:14:34.839Z,100030.72
2023-02-19T09:17:02.477Z,100040.84
2023-02-19T09:19:29.406Z,100041.94
2023-02-19T09:21:56.337Z,100044.81
2023-02-19T09:24:22.992Z,100048.31
2023-02-19T09:26:53.133Z,100056.53
2023-02-19T09:29:20.457Z,100077.41
2023-02-19T09:31:47.148Z,100079.34
2023-02-19T09:34:13.792Z,100085.16
2023-02-19T09:36:40.612Z,100099.81
2023-02-19T09:39:08.551Z,100100.91
2023-02-19T09:41:46.434Z,100114.22
2023-02-19T09:44:17.203Z,100111.75
2023-02-19T09:46:51.995Z,100128.72
2023-02-19T09:49:23.193Z,100119.38
2023-02-19T09:52:02.640Z,100123.91
2023-02-19T09:54:31.084Z,100133.34
2023-02-19T09:57:00.946Z,100137.13
2023-02-19T09:59:32.122Z,100132.16
2023-02-19T10:02:23.582Z,100140.63
2023-02-19T10:04:54.162Z,100142.66
2023-02-19T10:07:48.126Z,100155.56
2023-02-19T10:10:14.545Z,100158.78
2023-02-19T10:12:50.564Z,100164.34
2023-02-19T10:15:37.666Z,100172.53
2023-02-19T10:18:05.507Z,100178.22
2023-02-19T10:20:32.260Z,100184.22
2023-02-19T10:23:10.890Z,100176.19
2023-02-19T10:25:40.989Z,100186.38
2023-02-19T10:28:15.032Z,100198.25
2023-02-19T10:30:41.866Z,100191.00
2023-02-19T10:33:11.690Z,100192.81
2023-02-19T10:35:52.159Z,100197.19
2023-02-19T10:38:20.715Z,100196.72
2023-02-19T10:40:47.496Z,100204.38
2023-02-19T10:43:23.137Z,100208.94
2023-02-19T10:45:53.094Z,100215.66
2023-02-19T10:48:31.620Z,100214.66
2023-02-19T10:51:05.074Z,100232.03
2023-02-19T10:53:52.024Z,100231.88
2023-02-19T10:56:28.850Z,100236.28
2023-02-19T10:58:55.391Z,100241.16
2023-02-19T11:01:28.401Z,100241.97
2023-02-19T11:04:17.881Z,100250.31
2023-02-19T11:06:45.575Z,100241.09
2023-02-19T11:09:35.980Z,100261.91
2023-02-19T11:12:04.977Z,100255.28
2023-02-19T11:14:32.378Z,100258.78
2023-02-19T11:17:00.241Z,100270.03
2023-02-19T11:19:36.776Z,100275.09
2023-02-19T11:22:19.692Z,100284.38
2023-02-19T11:24:50.991Z,100282.34
2023-02-19T11:27:23.735Z,100287.34
2023-02-19T11:29:50.413Z,100282.56
2023-02-19T11:32:37.236Z,100285.31
2023-02-19T11:35:17.577Z,100284.88
2023-02-19T11:38:00.807Z,100295.03
2023-02-19T11:40:42.524Z,100286.59
2023-02-19T11:43:29.590Z,100281.69
2023-02-19T11:46:09.616Z,100284.66
2023-02-19T11:48:44.536Z,100308.59
2023-02-19T11:51:20.237Z,100303.88
2023-02-19T11:53:49.846Z,100303.19
2023-02-19T11:56:36.995Z,100300.19
2023-02-19T11:59:05.461Z,100302.16
2023-02-19T12:01:37.964Z,100319.31
2023-02-19T12:04:23.094Z,100322.44
2023-02-19T12:07:04.841Z,100323.97
2023-02-19T12:10:00.642Z,100331.69
2023-02-19T12:12:38.745Z,100340.84
2023-02-19T12:15:23.613Z,100342.66
2023-02-19T12:18:12.806Z,100346.09
2023-02-19T12:21:02.246Z,100342.53
2023-02-19T12:23:28.952Z,100337.44
2023-02-19T12:26:14.481Z,100348.38
2023-02-19T12:28:47.934Z,100339.53
2023-02-19T12:31:35.064Z,100343.41
2023-02-19T12:34:07.468Z,100335.84
2023-02-19T12:36:40.202Z,100336.81
2023-02-19T12:39:35.313Z,100328.63
2023-02-19T12:42:11.768Z,100332.06
2023-02-19T12:44:42.677Z,100328.03
2023-02-19T12:47:21.694Z,100321.28
2023-02-19T12:50:19.152Z,100322.91
2023-02-19T12:52:49.896Z,100328.78
2023-02-19T12:55:23.135Z,100319.84
2023-02-19T12:57:50.891Z,100322.81
2023-02-19T13:00:29.785Z,100325.34
2023-02-19T13:03:04.854Z,100322.66
2023-02-19T13:05:42.462Z,100338.25
2023-02-19T13:08:23.993Z,100337.22
2023-02-19T13:10:57.433Z,100343.16
2023-02-19T13:13:29.239Z,100351.63
2023-02-19T13:16:00.748Z,100369.44
2023-02-19T13:18:37.130Z,100353.31
2023-02-19T13:21:06.203Z,100361.66
2023-02-19T13:23:55.854Z,100376.59
2023-02-19T13:26:30.481Z,100361.94
2023-02-19T13:29:06.525Z,100371.56
2023-02-19T13:31:52.359Z,100349.25
2023-02-19T13:34:44.592Z,100354.81
2023-02-19T13:37:11.601Z,100371.03
2023-02-19T13:39:48.625Z,100373.97
2023-02-19T13:42:25.018Z,100370.97
2023-02-19T13:44:57.181Z,100370.97
2023-02-19T13:47:57.339Z,100382.19
2023-02-19T13:50:29.505Z,100372.88
2023-02-19T13:53:02.212Z,100377.94
2023-02-19T13:55:47.248Z,100377.94
2023-02-19T13:58:51.266Z,100383.41
2023-02-19T14:01:18.544Z,100389.25
2023-02-19T14:03:54.061Z,100382.81
2023-02-19T14:06:20.767Z,100391.50
2023-02-19T14:08:48.365Z,100389.88
2023-02-19T14:11:16.117Z,100384.19
2023-02-19T14:13:51.850Z,100384.97
2023-02-19T14:16:39.728Z,100394.75
2023-02-19T14:19:36.521Z,100406.25
2023-02-19T14:22:41.565Z,100403.91
2023-02-19T14:25:18.905Z,100398.28
2023-02-19T14:27:45.705Z,100400.59
2023-02-19T14:30:13.372Z,100406.81
2023-02-19T14:32:43.435Z,100402.00
2023-02-19T14:35:20.853Z,100409.97
2023-02-19T14:37:48.940Z,100411.41
2023-02-19T14:40:22.823Z,100414.84
2023-02-19T14:42:51.547Z,100409.47
2023-02-19T14:45:18.052Z,100410.63
2023-02-19T14:47:45.772Z,100423.94
2023-02-19T14:50:28.512Z,100423.66
2023-02-19T14:52:58.022Z,100416.59
2023-02-19T14:55:34.978Z,100426.53
2023-02-19T14:58:05.818Z,100428.88
2023-02-19T15:00:40.766Z,100431.06
2023-02-19T15:03:25.336Z,100434.56
2023-02-19T15:06:04.820Z,100431.97
2023-02-19T15:08:35.045Z,100443.88
2023-02-19T15:11:03.183Z,100451.91
2023-02-19T15:13:30.097Z,100443.94
2023-02-19T15:15:57.277Z,100449.13
2023-02-19T15:18:25.494Z,100454.50
2023-02-19T15:20:58.422Z,100453.81
2023-02-19T15:23:25.442Z,100456.09
2023-02-19T15:25:52.532Z,100452.66
2023-02-19T15:28:25.200Z,100460.25
2023-02-19T15:30:57.880Z,100458.59
2023-02-19T15:33:27.365Z,100467.41
2023-02-19T15:35:56.216Z,100456.81
2023-02-19T15:38:22.841Z,100457.41
2023-02-19T15:40:49.853Z,100460.97
2023-02-19T15:43:24.394Z,100472.97
2023-02-19T15:45:52.464Z,100475.00
2023-02-19T15:48:23.610Z,100476.28
2023-02-19T15:50:54.989Z,100477.41
2023-02-19T15:53:27.140Z,100485.97
2023-02-19T15:56:05.363Z,100487.56
2023-02-19T15:58:36.632Z,100487.38
2023-02-19T16:01:25.112Z,100479.09
2023-02-19T16:03:54.047Z,100473.63
2023-02-19T16:06:21.295Z,100485.88
2023-02-19T16:09:06.997Z,100491.75
2023-02-19T16:11:48.423Z,100492.19
2023-02-19T16:14:28.085Z,100483.50
2023-02-19T16:17:01.426Z,100488.50
2023-02-19T16:19:30.510Z,100484.84
2023-02-19T16:21:58.226Z,100484.81
2023-02-19T16:24:41.552Z,100491.19
2023-02-19T16:27:08.603Z,100482.47
2023-02-19T16:29:35.208Z,100484.31
2023-02-19T16:32:04.385Z,100492.41
2023-02-19T16:34:41.200Z,100484.38
2023-02-19T16:37:29.768Z,100497.78
2023-02-19T16:40:08.399Z,100530.19
2023-02-19T16:42:35.997Z,100531.81
2023-02-19T16:45:02.595Z,100527.69
2023-02-19T16:47:34.891Z,100554.84
2023-02-19T16:50:03.432Z,100541.41
2023-02-19T16:52:30.411Z,100552.41
2023-02-19T16:54:57.034Z,100553.34
2023-02-19T16:57:23.761Z,100569.47
2023-02-19T16:59:50.560Z,100575.66
2023-02-19T17:02:20.304Z,100574.78
2023-02-19T17:04:48.279Z,100587.06
2023-02-19T17:07:16.359Z,100591.84
2023-02-19T17:09:43.044Z,100601.84
2023-02-19T17:12:12.063Z,100605.19
2023-02-19T17:14:38.691Z,100602.75
2023-02-19T17:17:05.481Z,100603.72
2023-02-19T17:19:32.075Z,100610.94
2023-02-19T17:21:58.953Z,100611.53
2023-02-19T17:24:25.812Z,100610.72
2023-02-19T17:26:52.322Z,100617.34
2023-02-19T17:29:19.985Z,100619.94
2023-02-19T17:31:46.683Z,100622.41
2023-02-19T17:34:13.174Z,100629.69
2023-02-19T17:36:40.472Z,100627.81
2023-02-19T17:39:08.247Z,100629.28
2023-02-19T17:41:34.776Z,100625.19
2023-02-19T17:44:02.453Z,100644.53
2023-02-19T17:46:30.085Z,100648.97
2023-02-19T17:48:56.715Z,100643.00
2023-02-19T17:51:23.454Z,100647.41
2023-02-19T17:53:50.035Z,100650.72
2023-02-19T17:56:22.038Z,100654.34
2023-02-19T17:58:48.614Z,100660.63
2023-02-19T18:01:15.984Z,100663.97
2023-02-19T18:03:43.002Z,100655.19
2023-02-19T18:06:09.683Z,100654.59
2023-02-19T18:08:36.309Z,100651.78
2023-02-19T18:11:03.855Z,100656.19
2023-02-19T18:13:30.317Z,100663.63
2023-02-19T18:15:56.806Z,100663.97
2023-02-19T18:18:23.517Z,100677.44
2023-02-19T18:20:50.350Z,100671.16
2023-02-19T18:23:17.253Z,100667.13
2023-02-19T18:25:43.927Z,100674.84
2023-02-19T18:28:10.856Z,100678.75
2023-02-19T18:30:37.445Z,100673.50
2023-02-19T18:33:03.969Z,100680.69
2023-02-19T18:35:30.492Z,100677.16
2023-02-19T18:37:56.991Z,100682.97
2023-02-19T18:40:26.959Z,100685.75
2023-02-19T18:42:53.430Z,100686.66
2023-02-19T18:45:20.052Z,100685.56
2023-02-19T18:47:48.102Z,100688.91
2023-02-19T18:50:15.840Z,100696.91
2023-02-19T18:52:42.476Z,100689.22
2023-02-19T18:55:11.053Z,100690.34
2023-02-19T18:57:37.893Z,100699.13
2023-02-19T19:00:06.448Z,100688.69
2023-02-19T19:02:47.127Z,100696.09
2023-02-19T19:05:23.454Z,100700.47
2023-02-19T19:07:51.547Z,100691.41
2023-02-19T19:10:18.764Z,100693.09
2023-02-19T19:12:45.367Z,100690.06
2023-02-19T19:15:11.852Z,100693.09
2023-02-19T19:17:39.011Z,100702.72
2023-02-19T19:20:07.454Z,100707.97
2023-02-19T19:22:33.963Z,100712.16
2023-02-19T19:25:00.749Z,100711.91
2023-02-19T19:27:27.387Z,100713.03
2023-02-19T19:29:53.902Z,100704.28
2023-02-19T19:32:20.550Z,100702.34
2023-02-19T19:34:47.548Z,100699.34
2023-02-19T19:37:14.051Z,100695.22
2023-02-19T19:39:43.275Z,100697.94
2023-02-19T19:42:09.954Z,100697.94
2023-02-19T19:44:36.887Z,100704.84
2023-02-19T19:47:03.574Z,100706.53
2023-02-19T19:49:30.175Z,100706.78
2023-02-19T19:52:01.089Z,100712.84
2023-02-19T19:54:28.474Z,100713.09
2023-02-19T19:56:55.102Z,100703.78
2023-02-19T19:59:22.402Z,100706.56
2023-02-19T20:01:54.205Z,100704.38
2023-02-19T20:04:21.917Z,100706.03
2023-02-19T20:06:48.842Z,100707.09
2023-02-19T20:09:16.391Z,100710.41
2023-02-19T20:11:45.202Z,100703.81
2023-02-19T20:14:11.764Z,100711.00
2023-02-19T20:16:38.747Z,100710.50
2023-02-19T20:19:05.456Z,100706.63
2023-02-19T20:21:32.072Z,100705.53
2023-02-19T20:23:58.768Z,100713.81
2023-02-19T20:26:27.240Z,100714.09
2023-02-19T20:28:54.507Z,100702.81
2023-02-19T20:31:22.019Z,100703.06
2023-02-19T20:33:50.999Z,100705.59
2023-02-19T20:36:18.515Z,100696.81
2023-02-19T20:38:45.298Z,100690.78
2023-02-19T20:41:12.202Z,100696.81
2023-02-19T20:43:38.887Z,100698.19
2023-02-19T20:46:05.642Z,100700.41
2023-02-19T20:48:32.213Z,100705.06
2023-02-19T20:51:01.790Z,100705.06
2023-02-19T20:53:29.719Z,100709.72
2023-02-19T20:55:56.884Z,100706.97
2023-02-19T20:58:23.993Z,100729.75
2023-02-19T21:00:53.320Z,100734.69
2023-02-19T21:03:20.923Z,100736.88
2023-02-19T21:05:47.613Z,100739.59
2023-02-19T21:08:15.078Z,100747.22
2023-02-19T21:10:41.596Z,100755.72
2023-02-19T21:13:08.096Z,100753.81
2023-02-19T21:15:34.669Z,100755.72
2023-02-19T21:18:01.461Z,100747.78
2023-02-19T21:20:27.991Z,100753.34
2023-02-19T21:22:54.543Z,100753.88
2023-02-19T21:25:21.030Z,100756.09
2023-02-19T21:27:47.604Z,100758.00
2023-02-19T21:30:14.330Z,100770.91
2023-02-19T21:32:41.267Z,100772.00
2023-02-19T21:35:08.063Z,100784.66
2023-02-19T21:37:34.765Z,100775.88
2023-02-19T21:40:01.432Z,100780.81
2023-02-19T21:42:27.932Z,100780.28
2023-02-19T21:44:54.476Z,100781.38
2023-02-19T21:47:20.960Z,100780.53
2023-02-19T21:49:47.496Z,100774.81
2023-02-19T21:52:14.019Z,100773.72
2023-02-19T21:54:40.911Z,100778.09
2023-02-19T21:57:09.303Z,100767.41
2023-02-19T21:59:35.831Z,100773.16
2023-02-19T22:02:02.430Z,100773.44
2023-02-19T22:04:28.913Z,100779.44
2023-02-19T22:06:56.648Z,100771.47
2023-02-19T22:09:23.495Z,100765.72
2023-02-19T22:11:50.056Z,100768.44
2023-02-19T22:14:16.643Z,100765.16
2023-02-19T22:16:43.394Z,100764.31
2023-02-19T22:19:12.146Z,100757.44
2023-02-19T22:21:42.846Z,100763.72
2023-02-19T22:24:20.734Z,100743.72
2023-02-19T22:26:50.504Z,100737.94
2023-02-19T22:29:17.723Z,100741.25
2023-02-19T22:31:44.336Z,100740.44
2023-02-19T22:34:10.949Z,100727.81
2023-02-19T22:36:37.516Z,100748.41
2023-02-19T22:39:09.006Z,100742.09
2023-02-19T22:41:35.518Z,100733.31
2023-02-19T22:44:02.232Z,100738.00
2023-02-19T22:46:30.545Z,100731.44
2023-02-19T22:48:58.401Z,100730.88
2023-02-19T22:51:25.492Z,100736.63
2023-02-19T22:53:57.043Z,100732.50
2023-02-19T22:56:25.583Z,100724.25
2023-02-19T22:58:52.929Z,100724.81
2023-02-19T23:01:19.827Z,100728.06
2023-02-19T23:03:52.850Z,100713.78
2023-02-19T23:06:25.654Z,100706.34
2023-02-19T23:08:53.391Z,100703.28
2023-02-19T23:11:21.927Z,100711.22
2023-02-19T23:13:48.483Z,100700.53
2023-02-19T23:16:15.545Z,100692.47
2023-02-19T23:18:42.224Z,100695.72
2023-02-19T23:21:09.341Z,100697.63
2023-02-19T23:23:36.175Z,100692.16
2023-02-19T23:26:04.065Z,100698.19
2023-02-19T23:28:30.556Z,100689.94
2023-02-19T23:30:57.387Z,100695.47
2023-02-19T23:33:24.112Z,100683.72
2023-02-19T23:35:50.633Z,100694.97
2023-02-19T23:38:17.257Z,100683.63
2023-02-19T23:40:45.247Z,100693.19
2023-02-19T23:43:12.021Z,100689.28
2023-02-19T23:45:38.656Z,100686.88
2023-02-19T23:48:05.266Z,100678.94
2023-02-19T23:50:31.786Z,100673.16
2023-02-19T23:52:59.313Z,100669.97
2023-02-19T23:55:26.546Z,100658.38
2023-02-19T23:57:53.532Z,100653.50
